Time;durP1;ratioP1;P1;durP2;ratioP2;P2;SDS_P1;SDS_P2;PMS_P1;PMS_P2;Temp;Humidity;BMP_temperature;BMP_pressure;BME280_temperature;BME280_humidity;BME280_pressure;Samples;Min_cycle;Max_cycle;Signal;HPM_P1;HPM_P2
2022/04/21 00:02:21;;;;;;;1.85;0.20;;;27.20;88.00;;;;;;5106680;27;20193;-70
2022/04/21 00:04:48;;;;;;;0.93;0.52;;;27.50;88.00;;;;;;5106696;28;20378;-70
2022/04/21 00:07:15;;;;;;;0.73;0.20;;;27.60;86.90;;;;;;5098912;27;20024;-70
2022/04/21 00:09:43;;;;;;;2.35;0.40;;;27.30;87.80;;;;;;5104994;28;20118;-69
2022/04/21 00:12:10;;;;;;;2.42;0.40;;;26.70;88.20;;;;;;5106973;28;20019;-70
2022/04/21 00:14:38;;;;;;;0.20;0.10;;;26.80;89.90;;;;;;5102326;28;20485;-71
2022/04/21 00:17:08;;;;;;;1.90;0.60;;;26.90;87.70;;;;;;5094188;28;20530;-70
2022/04/21 00:19:36;;;;;;;1.73;0.20;;;26.40;88.20;;;;;;5105019;27;20051;-70
2022/04/21 00:24:51;;;;;;;0.10;0.10;;;25.00;90.80;;;;;;5097430;28;20084;-71
2022/04/21 00:27:19;;;;;;;0.40;0.10;;;24.60;90.60;;;;;;5097268;27;20103;-71
2022/04/21 00:29:47;;;;;;;1.02;0.20;;;24.10;91.20;;;;;;5099200;28;20036;-71
2022/04/21 00:32:15;;;;;;;1.05;0.20;;;23.70;92.00;;;;;;5099512;28;20393;-69
2022/04/21 00:34:43;;;;;;;0.82;0.20;;;23.50;92.30;;;;;;5099102;27;20039;-70
2022/04/21 00:37:13;;;;;;;1.55;0.13;;;24.50;91.20;;;;;;5105601;28;20395;-70
2022/04/21 00:39:40;;;;;;;1.08;0.10;;;26.10;90.10;;;;;;5103102;27;20020;-71
2022/04/21 00:42:08;;;;;;;1.38;0.20;;;27.00;87.20;;;;;;5103488;27;20035;-70
2022/04/21 00:44:35;;;;;;;0.35;0.17;;;27.50;85.90;;;;;;5102066;28;20028;-70
2022/04/21 00:47:06;;;;;;;0.45;0.22;;;28.10;85.50;;;;;;5103664;27;20043;-72
2022/04/21 00:49:34;;;;;;;0.10;0.03;;;28.80;84.00;;;;;;5094057;28;20037;-71
2022/04/21 00:52:02;;;;;;;1.95;0.10;;;29.10;81.60;;;;;;5099966;28;20115;-71
2022/04/21 00:54:34;;;;;;;1.95;0.20;;;29.40;82.30;;;;;;5097763;27;20183;-70
2022/04/21 00:57:02;;;;;;;0.20;0.20;;;29.30;81.40;;;;;;5111391;27;20428;-73
2022/04/21 00:59:30;;;;;;;0.70;0.20;;;29.70;81.10;;;;;;5101936;28;20059;-70
2022/04/21 01:04:46;;;;;;;0.10;0.08;;;30.40;79.60;;;;;;5097656;28;20057;-72
2022/04/21 01:07:13;;;;;;;0.13;0.10;;;30.40;79.50;;;;;;5096130;28;20496;-70
2022/04/21 01:09:49;;;;;;;0.47;0.17;;;30.60;79.10;;;;;;5104846;28;20063;-70
2022/04/21 01:12:17;;;;;;;1.70;0.30;;;30.40;78.40;;;;;;5106671;28;20035;-69
2022/04/21 01:14:45;;;;;;;0.90;0.20;;;30.40;79.50;;;;;;5107981;28;20100;-69
2022/04/21 01:17:13;;;;;;;1.02;0.20;;;30.80;78.30;;;;;;5101717;28;20015;-71
2022/04/21 01:19:40;;;;;;;1.95;0.10;;;30.90;78.40;;;;;;5098738;28;20087;-70
2022/04/21 01:22:10;;;;;;;1.27;0.20;;;31.00;77.70;;;;;;5095731;28;20379;-69
2022/04/21 01:24:38;;;;;;;1.52;0.15;;;31.20;77.90;;;;;;5101502;28;20028;-70
2022/04/21 01:27:05;;;;;;;1.38;0.65;;;31.40;78.70;;;;;;5103901;28;20027;-71
2022/04/21 01:29:32;;;;;;;1.05;0.10;;;31.40;77.90;;;;;;5108156;28;20035;-71
2022/04/21 01:32:00;;;;;;;1.55;0.40;;;31.40;77.50;;;;;;5101530;28;20081;-70
2022/04/21 01:34:28;;;;;;;0.30;0.10;;;31.50;78.70;;;;;;5102577;28;20016;-72
2022/04/21 01:42:46;;;;;;;3.60;0.20;;;30.80;79.10;;;;;;5014161;28;20007;-70
2022/04/21 01:45:14;;;;;;;0.80;0.30;;;30.50;79.30;;;;;;5016183;28;20100;-70
2022/04/21 01:47:41;;;;;;;0.80;0.20;;;29.60;79.70;;;;;;5068911;28;20134;-70
2022/04/21 01:50:09;;;;;;;0.80;0.22;;;28.60;81.30;;;;;;5103685;28;20521;-70
2022/04/21 01:52:38;;;;;;;0.85;0.20;;;28.20;81.60;;;;;;5093499;28;20031;-70
2022/04/21 01:55:07;;;;;;;0.13;0.10;;;28.60;81.50;;;;;;5098456;28;20028;-71
2022/04/21 01:57:35;;;;;;;2.45;0.50;;;29.50;80.40;;;;;;5096024;28;20502;-71
2022/04/21 02:00:03;;;;;;;0.60;0.28;;;30.10;79.40;;;;;;5096840;28;20119;-72
2022/04/21 02:02:32;;;;;;;0.60;0.30;;;30.40;78.40;;;;;;5110972;28;20023;-70
2022/04/21 02:05:01;;;;;;;0.50;0.20;;;30.50;77.90;;;;;;5098392;28;20030;-70
2022/04/21 02:07:29;;;;;;;0.70;0.10;;;30.60;78.60;;;;;;5104315;28;20370;-71
2022/04/21 02:09:57;;;;;;;0.60;0.30;;;30.70;78.30;;;;;;5110274;28;20031;-70
2022/04/21 02:12:27;;;;;;;1.55;0.20;;;30.30;79.10;;;;;;5107407;28;20030;-70
2022/04/21 02:14:54;;;;;;;0.40;0.20;;;30.00;79.60;;;;;;5111228;28;20039;-70
2022/04/21 02:17:25;;;;;;;0.85;0.77;;;29.70;80.80;;;;;;5095989;28;20035;-70
2022/04/21 02:19:52;;;;;;;0.30;0.28;;;29.90;80.80;;;;;;5104773;28;20028;-72
2022/04/21 02:22:20;;;;;;;2.53;0.30;;;29.80;80.00;;;;;;5101854;28;20023;-70
2022/04/21 02:24:47;;;;;;;2.22;0.40;;;28.70;81.50;;;;;;5098680;28;20039;-72
2022/04/21 02:27:15;;;;;;;2.80;0.52;;;28.00;83.80;;;;;;5104169;27;20430;-72
2022/04/21 02:29:42;;;;;;;3.00;0.43;;;28.00;84.00;;;;;;5109453;27;20389;-71
2022/04/21 02:32:09;;;;;;;0.22;0.13;;;28.40;83.70;;;;;;5109826;27;20089;-70
2022/04/21 02:34:37;;;;;;;0.50;0.30;;;28.30;83.00;;;;;;5107320;28;20027;-70
2022/04/21 02:37:04;;;;;;;0.52;0.30;;;27.90;83.70;;;;;;5100018;27;20032;-71
2022/04/21 02:39:32;;;;;;;1.25;0.40;;;28.10;83.40;;;;;;5112319;27;20095;-72
2022/04/21 02:42:02;;;;;;;2.58;0.40;;;28.30;83.40;;;;;;5097946;27;20020;-70
2022/04/21 02:44:30;;;;;;;1.27;0.57;;;28.30;84.80;;;;;;5101726;28;20019;-72
2022/04/21 02:46:59;;;;;;;2.13;0.50;;;27.70;86.30;;;;;;5108132;27;20121;-71
2022/04/21 02:49:27;;;;;;;1.42;0.50;;;26.60;89.00;;;;;;5101048;27;20036;-73
2022/04/21 02:51:55;;;;;;;2.65;0.50;;;25.60;90.60;;;;;;5104202;27;20088;-71
2022/04/21 02:57:23;;;;;;;5.90;0.80;;;25.20;91.40;;;;;;5094394;27;20195;-71
2022/04/21 03:00:10;;;;;;;2.78;0.55;;;25.60;91.10;;;;;;5097540;27;20895;-73
2022/04/21 03:02:37;;;;;;;5.47;0.90;;;26.00;90.70;;;;;;5080708;28;20036;-74
2022/04/21 03:05:05;;;;;;;2.72;0.60;;;26.00;90.70;;;;;;5103944;28;20028;-71
2022/04/21 03:07:32;;;;;;;3.15;0.60;;;25.90;91.10;;;;;;5091514;27;20815;-71
2022/04/21 03:10:00;;;;;;;3.97;1.13;;;26.10;91.10;;;;;;5101301;27;20118;-72
2022/04/21 03:12:28;;;;;;;3.75;0.70;;;26.30;90.70;;;;;;5096131;27;20107;-70
2022/04/21 03:14:57;;;;;;;2.20;0.60;;;26.30;90.70;;;;;;5100509;27;20059;-70
2022/04/21 03:17:25;;;;;;;0.93;0.50;;;26.00;90.90;;;;;;5102645;27;20536;-72
2022/04/21 03:19:52;;;;;;;1.92;0.60;;;26.10;90.80;;;;;;5099363;28;20155;-69
2022/04/21 03:25:12;;;;;;;4.82;0.95;;;24.60;91.60;;;;;;5107765;27;20018;-71
2022/04/21 03:27:39;;;;;;;3.88;0.68;;;24.70;91.90;;;;;;5100006;27;20019;-70
2022/04/21 03:30:08;;;;;;;7.70;0.65;;;24.70;91.90;;;;;;5096943;27;20171;-71
2022/04/21 03:32:36;;;;;;;4.90;0.45;;;24.90;91.60;;;;;;5096985;28;20031;-71
2022/04/21 03:35:04;;;;;;;4.97;0.95;;;24.90;91.70;;;;;;5101414;27;20110;-69
2022/04/21 03:37:31;;;;;;;3.17;1.13;;;24.40;92.40;;;;;;5100302;27;20105;-69
2022/04/21 03:39:59;;;;;;;3.22;0.63;;;24.00;93.50;;;;;;5105676;27;20027;-70
2022/04/21 03:42:28;;;;;;;3.80;0.95;;;23.30;94.20;;;;;;5107727;27;20494;-70
2022/04/21 03:44:56;;;;;;;5.47;0.50;;;23.00;94.90;;;;;;5110817;28;20443;-70
2022/04/21 03:47:23;;;;;;;0.90;0.40;;;22.80;95.30;;;;;;5102954;27;20039;-69
2022/04/21 03:49:51;;;;;;;3.88;0.80;;;22.70;95.90;;;;;;5101867;28;20128;-71
2022/04/21 03:52:18;;;;;;;4.50;0.98;;;22.70;96.20;;;;;;5107684;28;20053;-69
2022/04/21 03:54:46;;;;;;;2.38;0.60;;;22.50;96.50;;;;;;5104823;27;20183;-69
2022/04/21 03:57:13;;;;;;;5.05;0.60;;;22.50;97.00;;;;;;5108076;28;20393;-69
2022/04/21 03:59:40;;;;;;;2.10;0.70;;;22.50;97.10;;;;;;5097898;28;20017;-69
2022/04/21 04:02:08;;;;;;;7.95;0.70;;;22.50;97.20;;;;;;5082573;28;20024;-70
2022/04/21 04:04:37;;;;;;;2.42;0.70;;;22.40;97.20;;;;;;5103848;27;20050;-69
2022/04/21 04:12:38;;;;;;;4.90;0.88;;;22.60;97.10;;;;;;5101794;27;20058;-70
2022/04/21 04:15:07;;;;;;;4.07;0.80;;;22.80;96.80;;;;;;5099443;27;20714;-69
2022/04/21 04:17:35;;;;;;;5.63;1.23;;;22.70;96.70;;;;;;5099247;28;20041;-70
2022/04/21 04:20:03;;;;;;;5.25;0.68;;;22.70;96.60;;;;;;5099727;28;20020;-70
2022/04/21 04:22:34;;;;;;;1.85;0.57;;;22.80;96.40;;;;;;5098639;28;20032;-70
2022/04/21 04:25:02;;;;;;;4.32;0.80;;;22.70;96.30;;;;;;5099868;28;20481;-69
2022/04/21 04:27:29;;;;;;;4.65;0.70;;;22.60;96.50;;;;;;5099790;28;20132;-70
2022/04/21 04:29:56;;;;;;;2.55;1.02;;;22.50;96.30;;;;;;5098889;28;20039;-70
2022/04/21 04:32:24;;;;;;;3.28;0.60;;;22.30;96.70;;;;;;5096509;28;20048;-71
2022/04/21 04:34:51;;;;;;;3.30;0.57;;;22.20;97.00;;;;;;5099415;28;20513;-69
2022/04/21 04:37:19;;;;;;;4.03;0.82;;;22.20;97.20;;;;;;5098104;28;20073;-69
2022/04/21 04:39:46;;;;;;;3.75;0.52;;;22.10;97.00;;;;;;5097543;27;20028;-70
2022/04/21 04:42:16;;;;;;;3.33;0.80;;;22.10;97.00;;;;;;5100830;28;20110;-69
2022/04/21 04:44:45;;;;;;;4.55;0.82;;;22.00;97.00;;;;;;5096168;27;20023;-71
2022/04/21 04:47:13;;;;;;;4.82;1.00;;;21.90;97.40;;;;;;5095542;28;20075;-70
2022/04/21 04:49:41;;;;;;;2.08;0.50;;;22.00;97.30;;;;;;5096790;28;20041;-70
2022/04/21 04:52:09;;;;;;;5.03;0.77;;;21.80;97.20;;;;;;5094711;28;20019;-71
2022/04/21 04:54:36;;;;;;;3.40;1.13;;;21.70;97.40;;;;;;5078587;28;20036;-71
2022/04/21 04:57:04;;;;;;;7.07;0.82;;;21.60;97.30;;;;;;5100090;28;20401;-71
2022/04/21 04:59:31;;;;;;;3.55;0.77;;;21.50;97.40;;;;;;5096462;28;20473;-72
2022/04/21 05:01:59;;;;;;;1.80;0.70;;;21.50;97.40;;;;;;5104635;27;20043;-69
2022/04/21 05:04:26;;;;;;;5.85;1.42;;;21.50;97.20;;;;;;5107235;28;20020;-71
2022/04/21 05:06:57;;;;;;;4.03;0.60;;;21.30;97.50;;;;;;5107867;28;20035;-71
2022/04/21 05:09:25;;;;;;;2.47;0.70;;;21.30;97.50;;;;;;5108261;28;20282;-72
2022/04/21 05:11:55;;;;;;;3.50;0.73;;;21.30;97.60;;;;;;5110927;28;20126;-71
2022/04/21 05:14:24;;;;;;;4.15;0.47;;;21.30;97.70;;;;;;5106977;28;20067;-71
2022/04/21 05:16:52;;;;;;;2.60;0.40;;;21.30;97.60;;;;;;5108913;28;20026;-70
2022/04/21 05:19:23;;;;;;;4.75;1.45;;;21.30;97.60;;;;;;5098292;28;20019;-70
2022/04/21 05:21:51;;;;;;;3.13;0.80;;;21.40;97.80;;;;;;5102560;28;20095;-70
2022/04/21 05:24:19;;;;;;;2.17;0.77;;;21.50;97.60;;;;;;5093514;28;20114;-71
2022/04/21 05:26:47;;;;;;;3.40;0.50;;;21.50;97.30;;;;;;5112199;28;20024;-71
2022/04/21 05:32:02;;;;;;;3.22;0.63;;;21.60;97.10;;;;;;5108178;28;20038;-73
2022/04/21 05:34:33;;;;;;;4.53;0.98;;;21.60;97.00;;;;;;5111426;28;20024;-70
2022/04/21 05:37:02;;;;;;;1.48;0.63;;;21.70;97.00;;;;;;5102253;28;20024;-70
2022/04/21 05:39:30;;;;;;;4.82;0.80;;;21.60;97.00;;;;;;5107383;28;20031;-71
2022/04/21 05:41:59;;;;;;;10.48;0.88;;;21.50;97.20;;;;;;5102553;28;20023;-70
2022/04/21 05:44:29;;;;;;;1.42;0.80;;;21.40;97.20;;;;;;5109586;28;20034;-71
2022/04/21 05:46:57;;;;;;;2.85;1.05;;;21.30;97.30;;;;;;5113495;28;20051;-69
2022/04/21 05:49:25;;;;;;;2.88;0.65;;;21.30;97.50;;;;;;5104513;28;20031;-69
2022/04/21 05:51:54;;;;;;;5.05;0.80;;;21.30;97.50;;;;;;5101867;28;20080;-71
2022/04/21 05:54:22;;;;;;;3.15;1.58;;;21.30;97.40;;;;;;5099694;28;20032;-71
2022/04/21 05:56:49;;;;;;;2.60;0.80;;;21.30;97.40;;;;;;5096772;28;20058;-71
2022/04/21 05:59:17;;;;;;;5.45;1.00;;;21.30;97.30;;;;;;5098479;28;20042;-70
2022/04/21 06:01:44;;;;;;;3.58;0.90;;;21.20;97.40;;;;;;5112367;27;20362;-71
2022/04/21 06:04:12;;;;;;;4.43;0.80;;;21.10;97.60;;;;;;5102831;28;20019;-71
2022/04/21 06:06:39;;;;;;;4.20;0.50;;;21.00;97.50;;;;;;5098550;27;20023;-71
2022/04/21 06:09:07;;;;;;;5.05;0.63;;;21.00;97.40;;;;;;5100852;27;20055;-70
2022/04/21 06:11:34;;;;;;;5.30;0.80;;;21.00;97.40;;;;;;5096854;28;20035;-71
2022/04/21 06:14:02;;;;;;;7.95;1.27;;;21.00;97.30;;;;;;5099231;27;20027;-71
2022/04/21 06:16:29;;;;;;;4.32;0.63;;;21.00;97.00;;;;;;5098904;28;20027;-71
2022/04/21 06:18:57;;;;;;;4.20;0.57;;;21.00;96.70;;;;;;5101518;28;20354;-71
2022/04/21 06:21:24;;;;;;;2.28;1.15;;;21.00;96.60;;;;;;5080865;28;20034;-71
2022/04/21 06:23:51;;;;;;;2.95;0.70;;;20.90;96.60;;;;;;5097692;27;20034;-71
2022/04/21 06:26:25;;;;;;;1.80;0.63;;;20.90;96.60;;;;;;5103987;28;20028;-68
2022/04/21 06:28:59;;;;;;;3.45;1.17;;;20.90;96.40;;;;;;5103356;28;20028;-71
2022/04/21 06:31:27;;;;;;;3.20;1.17;;;20.90;96.30;;;;;;5100111;28;20063;-71
2022/04/21 06:33:54;;;;;;;1.90;1.38;;;20.80;96.20;;;;;;5102783;28;20038;-72
2022/04/21 06:36:22;;;;;;;3.72;0.85;;;20.80;96.40;;;;;;5100902;27;20035;-71
2022/04/21 06:38:51;;;;;;;4.15;1.25;;;20.80;96.30;;;;;;5101585;28;20020;-70
2022/04/21 06:41:18;;;;;;;3.58;1.08;;;20.80;96.40;;;;;;5101639;27;20055;-71
2022/04/21 06:49:17;;;;;;;4.47;1.40;;;21.00;96.20;;;;;;5101636;27;20026;-71
2022/04/21 06:51:44;;;;;;;5.45;1.48;;;20.90;96.30;;;;;;5097847;28;20028;-71
2022/04/21 06:57:33;;;;;;;5.50;0.90;;;20.80;96.40;;;;;;5100359;27;20429;-72
2022/04/21 07:00:01;;;;;;;5.90;1.52;;;20.80;96.10;;;;;;5099144;27;20116;-72
2022/04/21 07:02:32;;;;;;;3.45;1.60;;;20.70;96.30;;;;;;5102085;27;20149;-71
2022/04/21 07:05:07;;;;;;;3.45;1.08;;;20.70;96.30;;;;;;5101939;28;20537;-70
2022/04/21 07:07:35;;;;;;;3.05;1.67;;;20.60;96.10;;;;;;5097616;27;20137;-71
2022/04/21 07:10:03;;;;;;;4.45;0.93;;;20.50;96.30;;;;;;5097611;28;20035;-71
2022/04/21 07:12:31;;;;;;;2.97;0.90;;;20.40;96.50;;;;;;5078933;28;20020;-71
2022/04/21 07:15:06;;;;;;;4.15;1.20;;;20.40;96.60;;;;;;5101129;27;20028;-71
2022/04/21 07:17:34;;;;;;;1.95;0.73;;;20.40;96.40;;;;;;5096618;28;20432;-70
2022/04/21 07:20:03;;;;;;;1.75;0.57;;;20.40;96.50;;;;;;5097707;28;20027;-70
2022/04/21 07:22:31;;;;;;;3.22;1.20;;;20.40;96.40;;;;;;5101836;28;20031;-70
2022/04/21 07:25:01;;;;;;;3.88;0.90;;;20.40;96.20;;;;;;5107455;28;20087;-70
2022/04/21 07:27:28;;;;;;;3.13;0.77;;;20.60;96.00;;;;;;5095427;28;20625;-70
2022/04/21 07:29:56;;;;;;;2.40;1.02;;;20.50;96.00;;;;;;5106051;28;20036;-71
2022/04/21 07:32:23;;;;;;;2.15;0.68;;;20.50;96.10;;;;;;5106572;27;20027;-71
2022/04/21 07:34:51;;;;;;;4.57;1.30;;;20.50;96.30;;;;;;5105352;28;20023;-71
2022/04/21 07:37:18;;;;;;;6.00;0.80;;;20.50;96.70;;;;;;5105976;28;20140;-72
2022/04/21 07:39:46;;;;;;;1.30;0.80;;;20.40;96.60;;;;;;5108013;28;20031;-71
2022/04/21 07:42:13;;;;;;;1.63;0.50;;;20.40;96.90;;;;;;5107086;27;20083;-69
2022/04/21 07:44:41;;;;;;;3.53;0.73;;;20.30;97.10;;;;;;5098353;28;20461;-70
2022/04/21 07:47:09;;;;;;;1.70;0.60;;;20.30;97.00;;;;;;5105895;27;20059;-70
2022/04/21 07:49:47;;;;;;;2.63;0.55;;;20.30;97.10;;;;;;5107381;28;20039;-71
2022/04/21 07:55:16;;;;;;;5.30;0.70;;;20.30;97.10;;;;;;5126884;27;20034;-71
2022/04/21 07:57:45;;;;;;;0.85;0.32;;;20.20;97.10;;;;;;5104667;27;20023;-70
2022/04/21 08:00:14;;;;;;;2.30;0.45;;;20.30;97.00;;;;;;5090834;27;20028;-72
2022/04/21 08:02:43;;;;;;;1.25;0.40;;;20.20;96.90;;;;;;5095267;28;20024;-71
2022/04/21 08:05:13;;;;;;;2.47;0.60;;;20.20;97.00;;;;;;5099071;28;20027;-70
2022/04/21 08:07:41;;;;;;;4.32;0.60;;;20.10;96.90;;;;;;5099596;27;20039;-70
2022/04/21 08:10:09;;;;;;;2.33;0.95;;;20.00;96.80;;;;;;5098098;27;21084;-71
2022/04/21 08:12:43;;;;;;;1.42;0.32;;;20.00;96.70;;;;;;5098744;28;20038;-71
2022/04/21 08:15:13;;;;;;;1.85;0.40;;;19.90;96.70;;;;;;5098018;28;20486;-70
2022/04/21 08:17:41;;;;;;;2.20;0.30;;;19.90;96.70;;;;;;5098591;27;20031;-70
2022/04/21 08:20:11;;;;;;;1.50;0.80;;;19.90;96.80;;;;;;5098825;28;20031;-70
2022/04/21 08:22:39;;;;;;;1.63;0.50;;;19.90;96.90;;;;;;5093761;28;20036;-71
2022/04/21 08:33:24;;;;;;;0.85;0.57;;;19.60;96.40;;;;;;5099723;27;20272;-69
2022/04/21 08:35:58;;;;;;;2.40;0.82;;;19.60;96.30;;;;;;5099279;27;20068;-71
2022/04/21 08:38:27;;;;;;;4.05;0.52;;;19.60;96.40;;;;;;5099947;27;20027;-70
2022/04/21 08:40:56;;;;;;;2.53;0.90;;;19.60;96.40;;;;;;5099376;28;20030;-71
2022/04/21 08:43:27;;;;;;;3.40;0.98;;;19.60;96.40;;;;;;5097206;28;20032;-72
2022/04/21 08:45:55;;;;;;;3.25;1.02;;;19.60;96.40;;;;;;5099648;28;20443;-70
2022/04/21 08:48:25;;;;;;;1.70;0.50;;;19.50;96.20;;;;;;5098239;28;20051;-71
2022/04/21 08:50:54;;;;;;;3.13;0.70;;;19.50;96.10;;;;;;5078809;28;20126;-71
2022/04/21 08:53:24;;;;;;;2.92;0.77;;;19.50;96.30;;;;;;5098851;28;20020;-71
2022/04/21 08:55:52;;;;;;;1.85;0.50;;;19.50;96.20;;;;;;5098402;28;20485;-71
2022/04/21 08:58:21;;;;;;;3.00;0.47;;;19.50;96.30;;;;;;5097330;28;20038;-70
2022/04/21 09:00:51;;;;;;;2.13;0.57;;;19.50;96.40;;;;;;5098125;28;20541;-68
2022/04/21 09:03:19;;;;;;;3.50;0.60;;;19.50;96.30;;;;;;5096199;27;20030;-71
2022/04/21 09:05:47;;;;;;;4.53;0.65;;;19.40;96.30;;;;;;5095999;28;20039;-72
2022/04/21 09:08:26;;;;;;;3.25;0.30;;;19.40;96.30;;;;;;5097879;28;20093;-71
2022/04/21 09:11:15;;;;;;;1.38;0.40;;;19.40;96.40;;;;;;5098498;28;20169;-70
2022/04/21 09:13:46;;;;;;;1.98;0.57;;;19.40;96.50;;;;;;5099910;28;20035;-71
2022/04/21 09:16:20;;;;;;;11.88;1.02;;;19.40;96.50;;;;;;5096991;28;20501;-71
2022/04/21 09:18:47;;;;;;;2.80;0.40;;;19.40;96.60;;;;;;5100519;28;20382;-70
2022/04/21 09:21:18;;;;;;;2.03;0.60;;;19.40;96.80;;;;;;5098109;28;20110;-71
2022/04/21 09:23:47;;;;;;;1.08;0.45;;;19.30;96.80;;;;;;5098335;28;20442;-71
2022/04/21 09:26:17;;;;;;;4.45;0.88;;;19.30;96.90;;;;;;5094397;28;20016;-71
2022/04/21 09:28:54;;;;;;;4.10;1.33;;;19.30;97.00;;;;;;5098265;28;20031;-70
2022/04/21 09:31:21;;;;;;;1.88;0.40;;;19.30;97.00;;;;;;5098144;28;20128;-72
2022/04/21 09:33:49;;;;;;;3.88;0.70;;;19.20;97.00;;;;;;5096139;28;20106;-70
2022/04/21 09:36:18;;;;;;;1.20;0.43;;;19.20;97.00;;;;;;5099218;28;20038;-70
2022/04/21 09:38:58;;;;;;;5.85;0.82;;;19.20;97.00;;;;;;5102119;28;20028;-69
2022/04/21 09:41:29;;;;;;;1.13;0.45;;;19.20;97.00;;;;;;5099009;27;20079;-71
2022/04/21 09:47:02;;;;;;;4.70;0.70;;;19.20;97.20;;;;;;5094937;27;20509;-71
2022/04/21 09:49:35;;;;;;;0.50;0.40;;;19.10;97.40;;;;;;5101210;28;20073;-72
2022/04/21 09:52:03;;;;;;;0.63;0.40;;;19.10;97.20;;;;;;5100358;28;20536;-71
2022/04/21 09:54:31;;;;;;;2.22;0.50;;;19.10;97.20;;;;;;5100021;28;20027;-71
2022/04/21 09:56:58;;;;;;;2.55;0.52;;;19.00;97.40;;;;;;5100068;27;20051;-71
2022/04/21 09:59:26;;;;;;;1.27;0.50;;;19.00;97.40;;;;;;5092246;27;20710;-71
2022/04/21 10:01:54;;;;;;;3.17;1.40;;;19.00;97.50;;;;;;5098937;27;20059;-71
2022/04/21 10:04:22;;;;;;;2.83;1.20;;;18.90;97.50;;;;;;5098045;27;20073;-70
2022/04/21 10:06:50;;;;;;;1.58;1.20;;;18.90;97.50;;;;;;5100049;28;20028;-71
2022/04/21 10:09:17;;;;;;;2.20;1.25;;;18.80;97.60;;;;;;5098478;27;20052;-72
2022/04/21 10:11:44;;;;;;;2.40;1.08;;;18.80;97.70;;;;;;5101039;27;20122;-72
2022/04/21 10:14:15;;;;;;;1.90;0.80;;;18.80;97.80;;;;;;5101097;27;20374;-73
2022/04/21 10:16:44;;;;;;;1.15;0.88;;;18.80;97.80;;;;;;5100570;27;20028;-73
2022/04/21 10:19:19;;;;;;;1.58;0.50;;;18.70;97.90;;;;;;5099586;28;20028;-72
2022/04/21 10:22:00;;;;;;;2.63;0.50;;;18.70;98.00;;;;;;5100104;28;21653;-71
2022/04/21 10:24:32;;;;;;;2.72;0.73;;;18.70;98.10;;;;;;5102045;28;20039;-72
2022/04/21 10:26:59;;;;;;;3.95;0.43;;;18.70;98.30;;;;;;5102185;27;20031;-72
2022/04/21 10:29:27;;;;;;;1.58;0.85;;;18.60;98.30;;;;;;5102219;27;20425;-71
2022/04/21 10:31:59;;;;;;;2.25;0.52;;;18.60;98.30;;;;;;5100052;28;20031;-71
2022/04/21 10:34:42;;;;;;;1.25;0.40;;;18.60;98.50;;;;;;5098706;28;20051;-72
2022/04/21 10:37:10;;;;;;;2.20;0.47;;;18.60;98.60;;;;;;5099502;27;20027;-72
2022/04/21 10:39:39;;;;;;;1.00;0.55;;;18.60;98.60;;;;;;5101466;27;20031;-71
2022/04/21 10:42:16;;;;;;;2.47;0.50;;;18.60;98.70;;;;;;5099189;27;20028;-71
2022/04/21 10:44:45;;;;;;;3.20;0.57;;;18.50;98.70;;;;;;5099968;28;21567;-72
2022/04/21 10:47:36;;;;;;;0.73;0.43;;;18.60;98.70;;;;;;5096809;28;20079;-72
2022/04/21 10:50:18;;;;;;;1.83;0.40;;;18.60;98.80;;;;;;5098856;27;20046;-71
2022/04/21 10:58:37;;;;;;;0.93;0.43;;;18.50;98.90;;;;;;5097814;27;20054;-74
2022/04/21 11:01:28;;;;;;;0.95;0.40;;;18.50;98.90;;;;;;5107832;27;20027;-72
2022/04/21 11:04:19;;;;;;;3.10;0.40;;;18.60;99.10;;;;;;5110943;27;20505;-71
2022/04/21 11:06:49;;;;;;;2.75;0.75;;;18.50;99.20;;;;;;5105961;27;20036;-72
2022/04/21 11:09:39;;;;;;;2.05;0.68;;;18.50;99.30;;;;;;5113047;27;20482;-72
2022/04/21 11:12:08;;;;;;;3.28;0.40;;;18.50;99.10;;;;;;5109044;28;20462;-73
2022/04/21 11:14:37;;;;;;;0.68;0.30;;;18.50;99.20;;;;;;5108168;27;20036;-73
2022/04/21 11:17:14;;;;;;;2.65;0.50;;;18.50;99.20;;;;;;5103676;27;20449;-74
2022/04/21 11:20:01;;;;;;;4.95;0.50;;;18.60;99.20;;;;;;5101504;28;20124;-73
2022/04/21 11:22:42;;;;;;;3.58;0.73;;;18.50;99.20;;;;;;5102918;27;20031;-74
2022/04/21 11:25:11;;;;;;;0.45;0.35;;;18.50;99.20;;;;;;5111372;28;20020;-73
2022/04/21 11:27:44;;;;;;;1.65;0.60;;;18.50;99.30;;;;;;5106997;28;20772;-72
2022/04/21 11:30:14;;;;;;;2.80;0.60;;;18.50;99.30;;;;;;5107557;28;20046;-73
2022/04/21 11:32:52;;;;;;;0.95;0.52;;;18.50;99.50;;;;;;5108764;28;20032;-73
2022/04/21 11:35:24;;;;;;;2.08;0.47;;;18.50;99.50;;;;;;5097473;27;20876;-73
2022/04/21 11:37:52;;;;;;;2.22;0.50;;;18.50;99.50;;;;;;5098952;28;20540;-73
2022/04/21 11:40:30;;;;;;;2.30;0.60;;;18.50;99.50;;;;;;5103995;27;20088;-73
2022/04/21 11:42:59;;;;;;;1.02;0.30;;;18.50;99.50;;;;;;5107206;28;20492;-74
2022/04/21 11:45:36;;;;;;;3.95;0.52;;;18.40;99.30;;;;;;5100101;28;20541;-74
2022/04/21 11:48:12;;;;;;;7.13;0.80;;;18.40;99.60;;;;;;5105923;28;20477;-72
2022/04/21 11:50:44;;;;;;;0.68;0.25;;;18.40;99.60;;;;;;5081612;28;20502;-73
2022/04/21 11:53:20;;;;;;;1.05;0.50;;;18.40;99.60;;;;;;5098185;28;20945;-73
2022/04/21 11:55:50;;;;;;;;;;;18.40;99.70;;;;;;5095174;27;20534;-73
2022/04/21 11:58:38;;;;;;;1.95;0.57;;;18.40;99.60;;;;;;5098305;28;19907;-71
2022/04/21 12:06:53;;;;;;;2.03;0.30;;;18.40;99.90;;;;;;5098455;28;20492;-72
2022/04/21 12:09:35;;;;;;;0.98;0.40;;;18.40;99.90;;;;;;5099369;28;20020;-74
2022/04/21 12:12:04;;;;;;;2.72;1.40;;;18.40;99.90;;;;;;5098117;27;20502;-73
2022/04/21 12:14:32;;;;;;;3.83;1.15;;;18.40;99.90;;;;;;5098886;28;20059;-72
2022/04/21 12:17:01;;;;;;;2.85;1.02;;;18.40;99.90;;;;;;5097626;28;20027;-73
2022/04/21 12:19:46;;;;;;;1.33;0.60;;;18.30;99.90;;;;;;5095136;27;20020;-73
2022/04/21 12:22:16;;;;;;;2.47;0.60;;;18.40;99.90;;;;;;5072670;28;20024;-72
2022/04/21 12:24:49;;;;;;;3.95;0.65;;;18.40;99.90;;;;;;5109722;28;20031;-73
2022/04/21 12:27:38;;;;;;;2.70;0.57;;;18.30;99.90;;;;;;5105301;28;20028;-73
2022/04/21 12:30:07;;;;;;;1.33;0.45;;;18.30;99.90;;;;;;5114183;27;20035;-73
2022/04/21 12:32:40;;;;;;;0.88;0.38;;;18.30;99.90;;;;;;5119633;27;20095;-74
2022/04/21 12:35:11;;;;;;;2.22;0.60;;;18.30;99.90;;;;;;5103434;28;21942;-71
2022/04/21 12:37:41;;;;;;;0.85;0.40;;;18.20;99.90;;;;;;5100130;27;20040;-72
2022/04/21 12:40:11;;;;;;;2.33;0.43;;;18.20;99.90;;;;;;5098415;28;20118;-72
2022/04/21 12:42:42;;;;;;;3.35;0.90;;;18.10;99.90;;;;;;5096768;27;20034;-72
2022/04/21 12:45:10;;;;;;;2.38;0.60;;;18.00;99.90;;;;;;5106615;28;20023;-73
2022/04/21 12:47:47;;;;;;;2.72;0.75;;;17.90;99.90;;;;;;5105714;28;20047;-73
2022/04/21 12:50:20;;;;;;;8.30;0.93;;;17.90;99.90;;;;;;5076938;28;20075;-73
2022/04/21 12:52:49;;;;;;;3.60;0.82;;;17.90;99.90;;;;;;5104435;28;20545;-72
2022/04/21 12:55:19;;;;;;;0.50;0.40;;;17.80;99.90;;;;;;5107071;28;20442;-74
2022/04/21 12:58:11;;;;;;;3.88;1.38;;;17.80;99.90;;;;;;5110459;28;20035;-74
2022/04/21 13:00:45;;;;;;;2.00;0.55;;;17.80;99.90;;;;;;5110975;28;20107;-72
2022/04/21 13:03:14;;;;;;;1.52;0.60;;;17.80;99.90;;;;;;5106942;28;20351;-73
2022/04/21 13:05:53;;;;;;;6.05;1.55;;;17.70;99.90;;;;;;5107129;28;20055;-72
2022/04/21 13:08:22;;;;;;;3.95;1.00;;;17.80;99.90;;;;;;5113978;27;20038;-73
2022/04/21 13:10:50;;;;;;;6.47;1.17;;;17.80;99.90;;;;;;5096241;28;20039;-73
2022/04/21 13:13:18;;;;;;;5.00;0.75;;;17.80;99.90;;;;;;5110702;27;20079;-73
2022/04/21 13:15:46;;;;;;;6.63;1.40;;;17.80;99.90;;;;;;5110294;28;20116;-73
2022/04/21 13:18:15;;;;;;;3.00;0.90;;;17.90;99.90;;;;;;5103230;28;20459;-73
2022/04/21 13:23:29;;;;;;;3.70;1.02;;;17.80;99.90;;;;;;5098912;28;20107;-73
2022/04/21 13:25:58;;;;;;;4.32;1.35;;;17.80;99.90;;;;;;5097412;28;20039;-72
2022/04/21 13:28:26;;;;;;;3.58;0.70;;;17.80;99.90;;;;;;5107709;28;20075;-72
2022/04/21 13:33:38;;;;;;;3.08;0.70;;;17.70;99.90;;;;;;5098990;28;20034;-72
2022/04/21 13:36:06;;;;;;;9.25;1.85;;;17.60;99.90;;;;;;5106217;28;20477;-72
2022/04/21 13:38:34;;;;;;;8.80;1.13;;;17.60;99.90;;;;;;5105537;28;20020;-72
2022/04/21 13:41:01;;;;;;;8.55;1.33;;;17.50;99.90;;;;;;5100484;28;20028;-73
2022/04/21 13:43:28;;;;;;;7.57;1.00;;;17.50;99.90;;;;;;5109117;28;20042;-71
2022/04/21 13:45:57;;;;;;;7.65;0.95;;;17.40;99.90;;;;;;5082882;28;20032;-71
2022/04/21 13:48:25;;;;;;;5.22;0.85;;;17.30;99.90;;;;;;5096961;28;20051;-71
2022/04/21 13:50:53;;;;;;;4.95;1.25;;;17.30;99.90;;;;;;5099755;28;20036;-71
2022/04/21 13:53:20;;;;;;;5.45;1.35;;;17.20;99.90;;;;;;5103411;28;20089;-70
2022/04/21 13:55:49;;;;;;;9.88;1.20;;;17.10;99.90;;;;;;5110229;28;20032;-70
2022/04/21 13:58:16;;;;;;;6.50;0.82;;;17.00;99.90;;;;;;5109660;28;20118;-70
2022/04/21 14:00:45;;;;;;;6.00;1.10;;;17.00;99.90;;;;;;5109560;28;20080;-72
2022/04/21 14:03:13;;;;;;;7.45;1.13;;;16.90;99.90;;;;;;5102721;28;20031;-72
2022/04/21 14:05:41;;;;;;;5.47;0.90;;;16.90;99.90;;;;;;5104759;28;20027;-71
2022/04/21 14:08:09;;;;;;;4.40;0.80;;;16.90;99.90;;;;;;5101257;28;20110;-72